EGOS

RAF Shawbury Airport

Shawbury, United Kingdom
METAR EGOS 181350Z AUTO 26009KT 9999 BKN023/// BKN040/// 21/15 Q1018
Observed Flight Rules
Aug-18 @ 13:50 UTC (an hour ago) Marginal Visual Flight Rules
Wind Visibility Clouds
260° at 9 knots 10,000+ meters
  • Broken at 2,300' AGL
  • Broken at 4,000' AGL
Temperatures Readings
Current 21°C / 70°F
Dewpoint 15°C / 59°F
Humidity 69%
Altimeter 30.06" Hg
Pressure 1018 hPa
Elevation 76
METAR EGOS 181350Z AUTO 26009KT 9999 BKN023/// BKN040/// 21/15 Q1018
Observed Flight Rules
Aug-18 @ 13:50 UTC
(an hour ago)
MVFR
Wind Visibility
260° at 9 knots 10,000+ meters
Clouds
  • Broken at 2,300' AGL
  • Broken at 4,000' AGL
Temperature Dewpoint
21°C / 70°F 15°C / 59°F
Humidity Altimeter Pressure
69% 30.06" Hg 1018 hPa